Time,TemperatureF,DewpointF,PressureIn,WindDirection,WindDirectionDegrees,WindSpeedMPH,WindSpeedGustMPH,Humidity,HourlyPrecipIn,Conditions,Clouds,dailyrainin,SoftwareType,DateUTC
2013-03-09 00:07:00,38.7,31.0,30.05,NNE,22,5.0,18.0,75,0.00,,,0.00,weatherlink.com 1.10,2013-03-09 05:07:00,
2013-03-09 00:22:00,38.6,31.0,30.06,ENE,67,10.0,22.0,75,0.00,,,0.00,weatherlink.com 1.10,2013-03-09 05:22:00,
2013-03-09 00:37:00,38.4,31.0,30.06,NE,34,15.0,24.0,76,0.00,,,0.00,weatherlink.com 1.10,2013-03-09 05:37:00,
2013-03-09 00:53:00,38.3,31.0,30.06,NNE,30,15.0,22.0,76,0.00,,,0.00,weatherlink.com 1.10,2013-03-09 05:53:00,
2013-03-09 01:08:00,38.2,32.0,30.07,NE,53,8.0,23.0,77,0.00,,,0.00,weatherlink.com 1.10,2013-03-09 06:08:00,
2013-03-09 01:23:00,38.1,32.0,30.06,North,9,6.0,21.0,77,0.00,,,0.00,weatherlink.com 1.10,2013-03-09 06:23:00,
2013-03-09 01:38:00,37.9,32.0,30.06,North,5,13.0,17.0,78,0.00,,,0.00,weatherlink.com 1.10,2013-03-09 06:38:00,
2013-03-09 01:53:00,38.0,31.0,30.06,NE,50,19.0,22.0,77,0.00,,,0.00,weatherlink.com 1.10,2013-03-09 06:53:00,
2013-03-09 02:08:00,37.8,31.0,30.06,East,85,7.0,21.0,77,0.00,,,0.00,weatherlink.com 1.10,2013-03-09 07:08:00,
2013-03-09 02:23:00,37.8,31.0,30.06,NNE,30,12.0,24.0,77,0.00,,,0.00,weatherlink.com 1.10,2013-03-09 07:23:00,
2013-03-09 02:38:00,37.5,31.0,30.05,NNE,12,12.0,23.0,77,0.00,,,0.00,weatherlink.com 1.10,2013-03-09 07:38:00,
2013-03-09 02:53:00,37.3,31.0,30.06,NNE,26,15.0,19.0,78,0.00,,,0.00,weatherlink.com 1.10,2013-03-09 07:53:00,
2013-03-09 03:08:00,37.1,31.0,30.06,NE,43,7.0,21.0,78,0.00,,,0.00,weatherlink.com 1.10,2013-03-09 08:08:00,
2013-03-09 03:23:00,37.0,31.0,30.06,NE,51,7.0,21.0,79,0.00,,,0.00,weatherlink.com 1.10,2013-03-09 08:23:00,
2013-03-09 03:38:00,36.8,31.0,30.07,NNE,14,11.0,22.0,79,0.00,,,0.00,weatherlink.com 1.10,2013-03-09 08:38:00,
2013-03-09 03:53:00,36.7,31.0,30.07,NNE,18,9.0,24.0,79,0.00,,,0.00,weatherlink.com 1.10,2013-03-09 08:53:00,
2013-03-09 04:08:00,36.5,31.0,30.08,NE,34,9.0,16.0,80,0.00,,,0.00,weatherlink.com 1.10,2013-03-09 09:08:00,
2013-03-09 04:23:00,36.2,31.0,30.08,ENE,67,2.0,18.0,81,0.00,,,0.00,weatherlink.com 1.10,2013-03-09 09:23:00,
2013-03-09 04:38:00,36.2,31.0,30.09,North,9,8.0,23.0,81,0.00,,,0.00,weatherlink.com 1.10,2013-03-09 09:38:00,
2013-03-09 04:53:00,36.0,31.0,30.09,NNE,30,8.0,25.0,81,0.00,,,0.00,weatherlink.com 1.10,2013-03-09 09:53:00,
2013-03-09 05:08:00,35.6,31.0,30.09,NNE,30,4.0,23.0,82,0.00,,,0.00,weatherlink.com 1.10,2013-03-09 10:08:00,
2013-03-09 05:23:00,35.6,31.0,30.09,NNE,17,12.0,21.0,82,0.00,,,0.00,weatherlink.com 1.10,2013-03-09 10:23:00,
2013-03-09 05:38:00,35.4,31.0,30.11,NNW,338,12.0,17.0,83,0.00,,,0.00,weatherlink.com 1.10,2013-03-09 10:38:00,
2013-03-09 05:53:00,35.6,31.0,30.12,NNE,17,18.0,21.0,84,0.00,,,0.00,weatherlink.com 1.10,2013-03-09 10:53:00,
2013-03-09 06:08:00,35.7,31.0,30.12,North,5,1.0,15.0,84,0.00,,,0.00,weatherlink.com 1.10,2013-03-09 11:08:00,
2013-03-09 06:23:00,35.9,31.0,30.13,North,349,6.0,21.0,83,0.00,,,0.00,weatherlink.com 1.10,2013-03-09 11:23:00,
2013-03-09 06:38:00,36.0,32.0,30.13,NNE,28,7.0,-999.0,84,-99.99,,,0.00,weatherlink.com 1.10,2013-03-09 11:38:00,
2013-03-09 06:53:00,36.1,31.0,30.14,NW,325,15.0,20.0,83,0.00,,,0.00,weatherlink.com 1.10,2013-03-09 11:53:00,
2013-03-09 07:08:00,36.1,31.0,30.15,NE,47,7.0,26.0,82,0.00,,,0.00,weatherlink.com 1.10,2013-03-09 12:08:00,
2013-03-09 07:23:00,36.3,31.0,30.15,NNE,15,6.0,23.0,82,0.00,,,0.00,weatherlink.com 1.10,2013-03-09 12:23:00,
2013-03-09 07:38:00,36.5,32.0,30.16,NNW,341,11.0,21.0,82,0.00,,,0.00,weatherlink.com 1.10,2013-03-09 12:38:00,
2013-03-09 07:53:00,36.7,31.0,30.16,NE,46,13.0,22.0,81,0.00,,,0.00,weatherlink.com 1.10,2013-03-09 12:53:00,
2013-03-09 08:08:00,36.8,32.0,30.17,NNE,26,10.0,29.0,81,0.00,,,0.00,weatherlink.com 1.10,2013-03-09 13:08:00,
2013-03-09 08:24:00,36.8,32.0,30.18,NNE,26,16.0,25.0,81,0.00,,,0.00,weatherlink.com 1.10,2013-03-09 13:24:00,
2013-03-09 08:39:00,37.1,32.0,30.18,North,350,10.0,19.0,82,0.00,,,0.00,weatherlink.com 1.10,2013-03-09 13:39:00,
2013-03-09 08:54:00,37.3,32.0,30.18,NE,53,8.0,21.0,81,0.00,,,0.00,weatherlink.com 1.10,2013-03-09 13:54:00,
2013-03-09 09:09:00,37.3,32.0,30.18,North,355,5.0,23.0,81,0.00,,,0.00,weatherlink.com 1.10,2013-03-09 14:09:00,
2013-03-09 09:24:00,37.4,32.0,30.18,NNE,12,12.0,22.0,82,0.00,,,0.00,weatherlink.com 1.10,2013-03-09 14:24:00,
2013-03-09 09:39:00,37.7,33.0,30.18,NNE,29,5.0,22.0,82,0.00,,,0.00,weatherlink.com 1.10,2013-03-09 14:39:00,
2013-03-09 09:54:00,38.0,32.0,30.19,NNE,20,11.0,20.0,80,0.00,,,0.00,weatherlink.com 1.10,2013-03-09 14:54:00,
2013-03-09 10:09:00,37.8,32.0,30.19,ENE,67,5.0,23.0,80,0.00,,,0.00,weatherlink.com 1.10,2013-03-09 15:09:00,
2013-03-09 10:24:00,38.2,33.0,30.19,NE,49,10.0,22.0,80,0.00,,,0.00,weatherlink.com 1.10,2013-03-09 15:24:00,
2013-03-09 10:39:00,38.8,33.0,30.19,NNW,333,7.0,19.0,80,0.00,,,0.00,weatherlink.com 1.10,2013-03-09 15:39:00,
2013-03-09 10:54:00,39.5,33.0,30.19,NNE,19,7.0,23.0,77,0.00,,,0.00,weatherlink.com 1.10,2013-03-09 15:54:00,
2013-03-09 11:09:00,39.4,33.0,30.20,NNE,22,15.0,23.0,78,0.00,,,0.00,weatherlink.com 1.10,2013-03-09 16:09:00,
2013-03-09 11:24:00,39.4,33.0,30.21,NE,52,8.0,25.0,78,0.00,,,0.00,weatherlink.com 1.10,2013-03-09 16:24:00,
2013-03-09 11:39:00,39.0,33.0,30.21,NNE,24,13.0,27.0,78,0.00,,,0.00,weatherlink.com 1.10,2013-03-09 16:39:00,
2013-03-09 11:54:00,39.9,33.0,30.21,NNE,30,9.0,24.0,77,0.00,,,0.00,weatherlink.com 1.10,2013-03-09 16:54:00,
2013-03-09 12:09:00,39.9,33.0,30.21,SSW,207,3.0,18.0,77,0.00,,,0.00,weatherlink.com 1.10,2013-03-09 17:09:00,
2013-03-09 12:24:00,39.1,33.0,30.22,NE,50,10.0,24.0,78,0.00,,,0.00,weatherlink.com 1.10,2013-03-09 17:24:00,
2013-03-09 12:39:00,38.8,33.0,30.22,NNE,24,13.0,22.0,78,0.00,,,0.00,weatherlink.com 1.10,2013-03-09 17:39:00,
2013-03-09 12:54:00,39.7,33.0,30.22,NNW,338,2.0,15.0,78,0.00,,,0.00,weatherlink.com 1.10,2013-03-09 17:54:00,
2013-03-09 13:09:00,39.2,33.0,30.22,NE,51,6.0,17.0,78,0.00,,,0.00,weatherlink.com 1.10,2013-03-09 18:09:00,
2013-03-09 13:24:00,39.1,33.0,30.23,NNE,27,6.0,18.0,78,0.00,,,0.00,weatherlink.com 1.10,2013-03-09 18:24:00,
2013-03-09 13:39:00,39.0,33.0,30.23,North,11,9.0,18.0,79,0.00,,,0.00,weatherlink.com 1.10,2013-03-09 18:39:00,
2013-03-09 13:54:00,38.5,32.0,30.22,NE,53,15.0,20.0,78,0.00,,,0.00,weatherlink.com 1.10,2013-03-09 18:54:00,
2013-03-09 14:09:00,38.8,33.0,30.23,NNE,31,11.0,22.0,79,0.00,,,0.00,weatherlink.com 1.10,2013-03-09 19:09:00,
2013-03-09 14:24:00,38.6,33.0,30.23,NE,50,9.0,19.0,79,0.00,,,0.00,weatherlink.com 1.10,2013-03-09 19:24:00,
2013-03-09 14:39:00,40.2,34.0,30.23,NE,42,2.0,18.0,78,0.00,,,0.00,weatherlink.com 1.10,2013-03-09 19:39:00,
2013-03-09 14:54:00,41.0,34.0,30.22,ESE,109,10.0,22.0,76,0.00,,,0.00,weatherlink.com 1.10,2013-03-09 19:54:00,
2013-03-09 15:09:00,41.1,33.0,30.23,NE,53,6.0,19.0,74,0.00,,,0.00,weatherlink.com 1.10,2013-03-09 20:09:00,
2013-03-09 15:24:00,41.4,33.0,30.23,North,11,9.0,24.0,73,0.00,,,0.00,weatherlink.com 1.10,2013-03-09 20:24:00,
2013-03-09 15:39:00,40.9,34.0,30.23,ENE,61,10.0,22.0,75,0.00,,,0.00,weatherlink.com 1.10,2013-03-09 20:39:00,
2013-03-09 15:54:00,41.0,34.0,30.23,North,5,14.0,18.0,76,0.00,,,0.00,weatherlink.com 1.10,2013-03-09 20:54:00,
2013-03-09 16:09:00,40.7,33.0,30.23,NNE,19,9.0,18.0,75,0.00,,,0.00,weatherlink.com 1.10,2013-03-09 21:09:00,
2013-03-09 16:24:00,40.1,33.0,30.23,NNE,20,11.0,18.0,75,0.00,,,0.00,weatherlink.com 1.10,2013-03-09 21:24:00,
2013-03-09 16:39:00,39.4,33.0,30.24,NNE,19,9.0,18.0,77,0.00,,,0.00,weatherlink.com 1.10,2013-03-09 21:39:00,
2013-03-09 16:54:00,38.8,33.0,30.25,NE,37,5.0,17.0,79,0.00,,,0.00,weatherlink.com 1.10,2013-03-09 21:54:00,
2013-03-09 17:09:00,38.4,32.0,30.25,NE,45,7.0,14.0,79,0.00,,,0.00,weatherlink.com 1.10,2013-03-09 22:09:00,
2013-03-09 17:24:00,37.4,32.0,30.26,NE,37,8.0,14.0,80,0.00,,,0.00,weatherlink.com 1.10,2013-03-09 22:24:00,
2013-03-09 17:39:00,36.4,31.0,30.27,NNE,28,10.0,13.0,82,0.00,,,0.00,weatherlink.com 1.10,2013-03-09 22:39:00,
2013-03-09 17:54:00,35.8,31.0,30.27,NNW,346,8.0,15.0,84,0.00,,,0.00,weatherlink.com 1.10,2013-03-09 22:54:00,
2013-03-09 18:10:00,35.5,31.0,30.28,NNE,29,5.0,12.0,85,0.00,,,0.00,weatherlink.com 1.10,2013-03-09 23:10:00,
2013-03-09 18:25:00,35.2,31.0,30.28,NE,42,5.0,9.0,86,0.00,,,0.00,weatherlink.com 1.10,2013-03-09 23:25:00,
2013-03-09 18:40:00,35.0,32.0,30.29,North,9,6.0,9.0,87,0.00,,,0.00,weatherlink.com 1.10,2013-03-09 23:40:00,
2013-03-09 18:55:00,34.9,31.0,30.29,North,360,4.0,9.0,87,0.00,,,0.00,weatherlink.com 1.10,2013-03-09 23:55:00,
2013-03-09 19:10:00,34.8,32.0,30.29,NE,53,6.0,8.0,88,0.00,,,0.00,weatherlink.com 1.10,2013-03-10 00:10:00,
2013-03-09 19:25:00,34.8,32.0,30.29,NNW,338,4.0,10.0,89,0.00,,,0.00,weatherlink.com 1.10,2013-03-10 00:25:00,
2013-03-09 19:40:00,34.8,32.0,30.29,NE,51,4.0,11.0,89,0.00,,,0.00,weatherlink.com 1.10,2013-03-10 00:40:00,
2013-03-09 19:55:00,35.3,32.0,30.29,ENE,63,3.0,14.0,88,0.00,,,0.00,weatherlink.com 1.10,2013-03-10 00:55:00,
2013-03-09 20:10:00,35.1,32.0,30.29,NE,55,3.0,9.0,88,0.00,,,0.00,weatherlink.com 1.10,2013-03-10 01:10:00,
2013-03-09 20:25:00,35.1,32.0,30.29,NNE,32,2.0,11.0,89,0.00,,,0.00,weatherlink.com 1.10,2013-03-10 01:25:00,
2013-03-09 20:40:00,35.0,32.0,30.29,NE,43,3.0,7.0,89,0.00,,,0.00,weatherlink.com 1.10,2013-03-10 01:40:00,
2013-03-09 20:55:00,35.1,33.0,30.29,NE,42,2.0,8.0,90,0.00,,,0.00,weatherlink.com 1.10,2013-03-10 01:55:00,
2013-03-09 21:10:00,35.0,32.0,30.29,NE,49,5.0,7.0,90,0.00,,,0.00,weatherlink.com 1.10,2013-03-10 02:10:00,
2013-03-09 21:25:00,35.0,32.0,30.29,ENE,57,2.0,9.0,90,0.00,,,0.00,weatherlink.com 1.10,2013-03-10 02:25:00,
2013-03-09 21:40:00,34.9,32.0,30.30,NNE,25,1.0,7.0,90,0.00,,,0.00,weatherlink.com 1.10,2013-03-10 02:40:00,
2013-03-09 21:55:00,34.7,32.0,30.30,NE,34,5.0,7.0,90,0.00,,,0.00,weatherlink.com 1.10,2013-03-10 02:55:00,
2013-03-09 22:10:00,34.8,33.0,30.31,NNE,28,2.0,6.0,91,0.00,,,0.00,weatherlink.com 1.10,2013-03-10 03:10:00,
2013-03-09 22:25:00,34.7,32.0,30.31,NE,42,2.0,8.0,91,0.00,,,0.00,weatherlink.com 1.10,2013-03-10 03:25:00,
2013-03-09 22:40:00,34.5,32.0,30.31,North,11,1.0,5.0,91,0.00,,,0.00,weatherlink.com 1.10,2013-03-10 03:40:00,
2013-03-09 22:55:00,33.8,32.0,30.30,NE,43,2.0,6.0,91,0.00,,,0.00,weatherlink.com 1.10,2013-03-10 03:55:00,
2013-03-09 23:10:00,33.4,31.0,30.30,NNE,25,2.0,6.0,92,0.00,,,0.00,weatherlink.com 1.10,2013-03-10 04:10:00,
2013-03-09 23:25:00,33.7,32.0,30.30,NE,36,3.0,4.0,93,0.00,,,0.00,weatherlink.com 1.10,2013-03-10 04:25:00,
2013-03-09 23:40:00,33.8,32.0,30.30,NE,36,1.0,5.0,92,0.00,,,0.00,weatherlink.com 1.10,2013-03-10 04:40:00,
2013-03-09 23:55:00,34.0,32.0,30.31,NE,49,1.0,4.0,92,0.00,,,0.00,weatherlink.com 1.10,2013-03-10 04:55:00,